Aviation Digital Data Service (ADDS)

Output produced by METARs form (1208 UTC 24 June 2017)
found at http://aviationweather.gov/adds/metars/
 
METAR text: EDTY 241150Z 26015KT 230V290 9999 FEW049 24/12 Q1017
Conditions at: EDTY (SCHWAEBISCH HALL, DE) observed 1150 UTC 24 June 2017
Temperature: 24.0°C (75°F)
Dewpoint: 12.0°C (54°F) [RH = 47%]
Pressure (altimeter): 30.03 inches Hg (1017.0 mb)
Winds: from the W (260 degrees) at 17 MPH (15 knots; 7.8 m/s)
Visibility: 6 or more miles (10+ km)
Ceiling: at least 12,000 feet AGL
Clouds: few clouds at 4900 feet AGL
Weather: no significant weather observed at this time

Forecast for: EDTY (SCHWAEBISCH HALL, DE)
Text: TAF EDTY 241100Z 2412/2421 28015G25KT CAVOK
Forecast period: 1200 to 1700 UTC 24 June 2017
Forecast type: FROM: standard forecast or significant change
Winds: from the W (280 degrees) at 17 MPH (15 knots; 7.8 m/s)
gusting to 29 MPH (25 knots; 13.0 m/s)
Visibility: 6 or more miles (10+ km)
Clouds: not forecast
Weather: NSW  (no significant weather)
Text: BECMG 2417/2419 30006KT
Forecast period: 1700 to 2100 UTC 24 June 2017
Forecast type: BECOMING: Conditions expected to become as follows by 1900 UTC 24 June 2017
Winds: from the WNW (300 degrees) at 7 MPH (6 knots; 3.1 m/s)
Visibility: 6 or more miles (10+ km)
Weather: NSW  (no significant weather)